sensor_id;sensor_type;location;lat;lon;timestamp;P1;durP1;ratioP1;P2;durP2;ratioP2
6725;SDS011;3400;48.506;11.692;2023-05-10T00:00:13;2.80;;;1.60;;
6725;SDS011;3400;48.506;11.692;2023-05-10T00:02:42;1.30;;;1.20;;
6725;SDS011;3400;48.506;11.692;2023-05-10T00:05:10;2.70;;;1.50;;
6725;SDS011;3400;48.506;11.692;2023-05-10T00:07:38;1.50;;;1.40;;
6725;SDS011;3400;48.506;11.692;2023-05-10T00:10:08;1.30;;;1.20;;
6725;SDS011;3400;48.506;11.692;2023-05-10T00:12:36;1.17;;;1.17;;
6725;SDS011;3400;48.506;11.692;2023-05-10T00:15:04;1.13;;;1.13;;
6725;SDS011;3400;48.506;11.692;2023-05-10T00:17:32;2.47;;;1.30;;
6725;SDS011;3400;48.506;11.692;2023-05-10T00:20:00;2.10;;;1.00;;
6725;SDS011;3400;48.506;11.692;2023-05-10T00:22:30;1.37;;;1.37;;
6725;SDS011;3400;48.506;11.692;2023-05-10T00:24:58;4.20;;;1.40;;
6725;SDS011;3400;48.506;11.692;2023-05-10T00:27:27;1.73;;;1.60;;
6725;SDS011;3400;48.506;11.692;2023-05-10T00:29:55;1.60;;;1.50;;
6725;SDS011;3400;48.506;11.692;2023-05-10T00:32:23;1.73;;;1.60;;
6725;SDS011;3400;48.506;11.692;2023-05-10T00:34:51;1.70;;;1.60;;
6725;SDS011;3400;48.506;11.692;2023-05-10T00:37:19;1.60;;;1.50;;
6725;SDS011;3400;48.506;11.692;2023-05-10T00:39:46;1.80;;;1.57;;
6725;SDS011;3400;48.506;11.692;2023-05-10T00:42:14;3.20;;;1.70;;
6725;SDS011;3400;48.506;11.692;2023-05-10T00:44:44;2.07;;;1.97;;
6725;SDS011;3400;48.506;11.692;2023-05-10T00:47:12;2.27;;;1.80;;
6725;SDS011;3400;48.506;11.692;2023-05-10T00:49:40;5.20;;;1.90;;
6725;SDS011;3400;48.506;11.692;2023-05-10T00:52:08;2.00;;;1.90;;
6725;SDS011;3400;48.506;11.692;2023-05-10T00:54:36;2.70;;;1.77;;
6725;SDS011;3400;48.506;11.692;2023-05-10T00:57:04;2.27;;;2.13;;
6725;SDS011;3400;48.506;11.692;2023-05-10T00:59:32;2.33;;;2.10;;
6725;SDS011;3400;48.506;11.692;2023-05-10T01:02:02;2.50;;;1.90;;
6725;SDS011;3400;48.506;11.692;2023-05-10T01:04:29;2.40;;;2.20;;
6725;SDS011;3400;48.506;11.692;2023-05-10T01:06:57;2.27;;;2.07;;
6725;SDS011;3400;48.506;11.692;2023-05-10T01:09:25;3.03;;;1.77;;
6725;SDS011;3400;48.506;11.692;2023-05-10T01:11:53;3.20;;;2.00;;
6725;SDS011;3400;48.506;11.692;2023-05-10T01:14:22;2.87;;;2.10;;
6725;SDS011;3400;48.506;11.692;2023-05-10T01:16:50;2.50;;;2.30;;
6725;SDS011;3400;48.506;11.692;2023-05-10T01:19:22;2.70;;;1.90;;
6725;SDS011;3400;48.506;11.692;2023-05-10T01:21:53;2.73;;;2.33;;
6725;SDS011;3400;48.506;11.692;2023-05-10T01:27:20;3.77;;;2.20;;
6725;SDS011;3400;48.506;11.692;2023-05-10T01:32:37;3.37;;;2.00;;
6725;SDS011;3400;48.506;11.692;2023-05-10T01:35:09;2.10;;;2.00;;
6725;SDS011;3400;48.506;11.692;2023-05-10T01:37:40;1.87;;;1.77;;
6725;SDS011;3400;48.506;11.692;2023-05-10T01:40:13;3.90;;;2.43;;
6725;SDS011;3400;48.506;11.692;2023-05-10T01:42:46;2.90;;;2.63;;
6725;SDS011;3400;48.506;11.692;2023-05-10T01:45:18;2.60;;;2.40;;
6725;SDS011;3400;48.506;11.692;2023-05-10T01:47:50;3.40;;;2.50;;
6725;SDS011;3400;48.506;11.692;2023-05-10T01:50:22;2.43;;;2.23;;
6725;SDS011;3400;48.506;11.692;2023-05-10T01:52:53;3.07;;;2.17;;
6725;SDS011;3400;48.506;11.692;2023-05-10T01:55:22;2.47;;;2.37;;
6725;SDS011;3400;48.506;11.692;2023-05-10T01:57:52;2.53;;;2.43;;
6725;SDS011;3400;48.506;11.692;2023-05-10T02:00:24;2.43;;;2.27;;
6725;SDS011;3400;48.506;11.692;2023-05-10T02:02:54;2.57;;;2.37;;
6725;SDS011;3400;48.506;11.692;2023-05-10T02:05:22;3.43;;;2.47;;
6725;SDS011;3400;48.506;11.692;2023-05-10T02:07:52;2.33;;;2.23;;
6725;SDS011;3400;48.506;11.692;2023-05-10T02:10:20;2.90;;;2.40;;
6725;SDS011;3400;48.506;11.692;2023-05-10T02:12:48;2.73;;;2.43;;
6725;SDS011;3400;48.506;11.692;2023-05-10T02:15:17;2.80;;;2.60;;
6725;SDS011;3400;48.506;11.692;2023-05-10T02:17:46;3.00;;;2.80;;
6725;SDS011;3400;48.506;11.692;2023-05-10T02:20:16;2.93;;;2.30;;
6725;SDS011;3400;48.506;11.692;2023-05-10T02:22:44;2.67;;;2.47;;
6725;SDS011;3400;48.506;11.692;2023-05-10T02:25:13;2.70;;;2.50;;
6725;SDS011;3400;48.506;11.692;2023-05-10T02:27:41;2.40;;;2.20;;
6725;SDS011;3400;48.506;11.692;2023-05-10T02:30:10;2.93;;;2.73;;
6725;SDS011;3400;48.506;11.692;2023-05-10T02:32:39;2.50;;;2.30;;
6725;SDS011;3400;48.506;11.692;2023-05-10T02:35:08;2.30;;;2.10;;
6725;SDS011;3400;48.506;11.692;2023-05-10T02:37:37;2.83;;;2.30;;
6725;SDS011;3400;48.506;11.692;2023-05-10T02:40:06;3.90;;;2.37;;
6725;SDS011;3400;48.506;11.692;2023-05-10T02:42:35;2.40;;;2.30;;
6725;SDS011;3400;48.506;11.692;2023-05-10T02:45:05;2.93;;;1.97;;
6725;SDS011;3400;48.506;11.692;2023-05-10T02:47:35;2.20;;;2.10;;
6725;SDS011;3400;48.506;11.692;2023-05-10T02:50:03;3.67;;;2.13;;
6725;SDS011;3400;48.506;11.692;2023-05-10T02:52:35;5.13;;;2.00;;
6725;SDS011;3400;48.506;11.692;2023-05-10T02:55:06;4.23;;;2.10;;
6725;SDS011;3400;48.506;11.692;2023-05-10T02:57:38;2.10;;;1.70;;
6725;SDS011;3400;48.506;11.692;2023-05-10T03:00:08;2.00;;;1.67;;
6725;SDS011;3400;48.506;11.692;2023-05-10T03:02:36;3.77;;;1.63;;
6725;SDS011;3400;48.506;11.692;2023-05-10T03:05:04;1.53;;;1.43;;
6725;SDS011;3400;48.506;11.692;2023-05-10T03:07:32;2.00;;;1.40;;
6725;SDS011;3400;48.506;11.692;2023-05-10T03:10:00;1.63;;;1.53;;
6725;SDS011;3400;48.506;11.692;2023-05-10T03:12:33;1.67;;;1.50;;
6725;SDS011;3400;48.506;11.692;2023-05-10T03:15:08;1.70;;;1.60;;
6725;SDS011;3400;48.506;11.692;2023-05-10T03:17:41;3.83;;;1.90;;
6725;SDS011;3400;48.506;11.692;2023-05-10T03:20:16;1.90;;;1.80;;
6725;SDS011;3400;48.506;11.692;2023-05-10T03:22:50;1.70;;;1.60;;
6725;SDS011;3400;48.506;11.692;2023-05-10T03:25:19;2.17;;;2.00;;
6725;SDS011;3400;48.506;11.692;2023-05-10T03:27:52;2.00;;;1.70;;
6725;SDS011;3400;48.506;11.692;2023-05-10T03:30:20;1.80;;;1.70;;
6725;SDS011;3400;48.506;11.692;2023-05-10T03:32:48;1.90;;;1.80;;
6725;SDS011;3400;48.506;11.692;2023-05-10T03:35:17;2.20;;;2.00;;
6725;SDS011;3400;48.506;11.692;2023-05-10T03:37:45;2.07;;;1.97;;
6725;SDS011;3400;48.506;11.692;2023-05-10T03:40:13;1.90;;;1.80;;
6725;SDS011;3400;48.506;11.692;2023-05-10T03:42:42;1.87;;;1.77;;
6725;SDS011;3400;48.506;11.692;2023-05-10T03:45:12;2.13;;;2.03;;
6725;SDS011;3400;48.506;11.692;2023-05-10T03:47:40;2.33;;;2.03;;
6725;SDS011;3400;48.506;11.692;2023-05-10T03:50:08;2.10;;;1.77;;
6725;SDS011;3400;48.506;11.692;2023-05-10T03:52:37;2.10;;;2.00;;
6725;SDS011;3400;48.506;11.692;2023-05-10T03:55:05;1.87;;;1.77;;
6725;SDS011;3400;48.506;11.692;2023-05-10T03:57:33;2.73;;;1.80;;
6725;SDS011;3400;48.506;11.692;2023-05-10T04:00:01;2.13;;;2.03;;
6725;SDS011;3400;48.506;11.692;2023-05-10T04:02:41;2.77;;;2.00;;
6725;SDS011;3400;48.506;11.692;2023-05-10T04:05:14;1.90;;;1.80;;
6725;SDS011;3400;48.506;11.692;2023-05-10T04:07:42;1.60;;;1.50;;
6725;SDS011;3400;48.506;11.692;2023-05-10T04:10:10;1.73;;;1.70;;
6725;SDS011;3400;48.506;11.692;2023-05-10T04:12:38;1.77;;;1.70;;
6725;SDS011;3400;48.506;11.692;2023-05-10T04:15:07;2.20;;;2.00;;
6725;SDS011;3400;48.506;11.692;2023-05-10T04:17:35;1.60;;;1.50;;
6725;SDS011;3400;48.506;11.692;2023-05-10T04:20:05;1.70;;;1.60;;
6725;SDS011;3400;48.506;11.692;2023-05-10T04:22:34;1.50;;;1.40;;
6725;SDS011;3400;48.506;11.692;2023-05-10T04:25:02;1.70;;;1.60;;
6725;SDS011;3400;48.506;11.692;2023-05-10T04:27:30;1.97;;;1.30;;
6725;SDS011;3400;48.506;11.692;2023-05-10T04:29:58;1.57;;;1.47;;
6725;SDS011;3400;48.506;11.692;2023-05-10T04:32:26;2.00;;;1.50;;
6725;SDS011;3400;48.506;11.692;2023-05-10T04:34:53;1.70;;;1.60;;
6725;SDS011;3400;48.506;11.692;2023-05-10T04:37:23;2.47;;;1.47;;
6725;SDS011;3400;48.506;11.692;2023-05-10T04:39:51;1.63;;;1.53;;
6725;SDS011;3400;48.506;11.692;2023-05-10T04:42:19;3.47;;;1.43;;
6725;SDS011;3400;48.506;11.692;2023-05-10T04:44:47;1.43;;;1.40;;
6725;SDS011;3400;48.506;11.692;2023-05-10T04:47:15;1.23;;;1.23;;
6725;SDS011;3400;48.506;11.692;2023-05-10T04:49:43;1.30;;;1.20;;
6725;SDS011;3400;48.506;11.692;2023-05-10T04:52:10;1.30;;;1.20;;
6725;SDS011;3400;48.506;11.692;2023-05-10T04:54:40;2.70;;;1.00;;
6725;SDS011;3400;48.506;11.692;2023-05-10T04:57:08;3.23;;;0.90;;
6725;SDS011;3400;48.506;11.692;2023-05-10T04:59:36;1.10;;;0.80;;
6725;SDS011;3400;48.506;11.692;2023-05-10T05:02:04;0.80;;;0.80;;
6725;SDS011;3400;48.506;11.692;2023-05-10T05:04:32;0.50;;;0.50;;
6725;SDS011;3400;48.506;11.692;2023-05-10T05:07:00;0.67;;;0.60;;
6725;SDS011;3400;48.506;11.692;2023-05-10T05:09:28;0.57;;;0.57;;
6725;SDS011;3400;48.506;11.692;2023-05-10T05:11:59;0.60;;;0.60;;
6725;SDS011;3400;48.506;11.692;2023-05-10T05:14:27;1.43;;;0.77;;
6725;SDS011;3400;48.506;11.692;2023-05-10T05:16:54;1.10;;;0.50;;
6725;SDS011;3400;48.506;11.692;2023-05-10T05:19:23;1.13;;;0.60;;
6725;SDS011;3400;48.506;11.692;2023-05-10T05:21:50;0.30;;;0.30;;
6725;SDS011;3400;48.506;11.692;2023-05-10T05:24:18;1.13;;;0.60;;
6725;SDS011;3400;48.506;11.692;2023-05-10T05:26:46;0.53;;;0.50;;
6725;SDS011;3400;48.506;11.692;2023-05-10T05:29:15;0.70;;;0.70;;
6725;SDS011;3400;48.506;11.692;2023-05-10T05:31:43;0.40;;;0.40;;
6725;SDS011;3400;48.506;11.692;2023-05-10T05:34:11;0.60;;;0.60;;
6725;SDS011;3400;48.506;11.692;2023-05-10T05:36:39;0.77;;;0.77;;
6725;SDS011;3400;48.506;11.692;2023-05-10T05:39:07;0.87;;;0.67;;
6725;SDS011;3400;48.506;11.692;2023-05-10T05:41:35;0.93;;;0.70;;
6725;SDS011;3400;48.506;11.692;2023-05-10T05:44:03;1.10;;;0.93;;
6725;SDS011;3400;48.506;11.692;2023-05-10T05:46:32;0.87;;;0.50;;
6725;SDS011;3400;48.506;11.692;2023-05-10T05:49:00;1.13;;;0.67;;
6725;SDS011;3400;48.506;11.692;2023-05-10T05:51:28;3.57;;;0.60;;
6725;SDS011;3400;48.506;11.692;2023-05-10T05:53:56;0.83;;;0.63;;
6725;SDS011;3400;48.506;11.692;2023-05-10T05:56:24;1.60;;;0.80;;
6725;SDS011;3400;48.506;11.692;2023-05-10T05:58:52;1.77;;;1.00;;
6725;SDS011;3400;48.506;11.692;2023-05-10T06:01:20;0.93;;;0.93;;
6725;SDS011;3400;48.506;11.692;2023-05-10T06:03:49;1.27;;;1.00;;
6725;SDS011;3400;48.506;11.692;2023-05-10T06:06:17;2.20;;;0.80;;
6725;SDS011;3400;48.506;11.692;2023-05-10T06:08:45;1.43;;;1.07;;
6725;SDS011;3400;48.506;11.692;2023-05-10T06:11:13;1.20;;;1.10;;
6725;SDS011;3400;48.506;11.692;2023-05-10T06:13:41;3.03;;;1.20;;
6725;SDS011;3400;48.506;11.692;2023-05-10T06:16:09;0.90;;;0.90;;
6725;SDS011;3400;48.506;11.692;2023-05-10T06:18:36;1.00;;;1.00;;
6725;SDS011;3400;48.506;11.692;2023-05-10T06:21:06;4.40;;;1.20;;
6725;SDS011;3400;48.506;11.692;2023-05-10T06:23:33;1.03;;;1.03;;
6725;SDS011;3400;48.506;11.692;2023-05-10T06:26:01;1.30;;;1.20;;
6725;SDS011;3400;48.506;11.692;2023-05-10T06:28:30;1.53;;;1.43;;
6725;SDS011;3400;48.506;11.692;2023-05-10T06:30:59;1.43;;;1.40;;
6725;SDS011;3400;48.506;11.692;2023-05-10T06:33:27;1.33;;;1.23;;
6725;SDS011;3400;48.506;11.692;2023-05-10T06:35:55;1.70;;;1.60;;
6725;SDS011;3400;48.506;11.692;2023-05-10T06:38:24;1.50;;;1.50;;
6725;SDS011;3400;48.506;11.692;2023-05-10T06:40:52;1.80;;;1.70;;
6725;SDS011;3400;48.506;11.692;2023-05-10T06:43:20;3.40;;;3.10;;
6725;SDS011;3400;48.506;11.692;2023-05-10T06:45:48;9.90;;;7.00;;
6725;SDS011;3400;48.506;11.692;2023-05-10T06:48:15;8.30;;;6.93;;
6725;SDS011;3400;48.506;11.692;2023-05-10T06:50:43;9.00;;;7.27;;
6725;SDS011;3400;48.506;11.692;2023-05-10T06:53:11;3.70;;;3.40;;
6725;SDS011;3400;48.506;11.692;2023-05-10T06:55:40;3.17;;;2.90;;
6725;SDS011;3400;48.506;11.692;2023-05-10T06:58:08;7.00;;;3.33;;
6725;SDS011;3400;48.506;11.692;2023-05-10T07:00:36;3.27;;;3.00;;
6725;SDS011;3400;48.506;11.692;2023-05-10T07:03:06;2.77;;;2.57;;
6725;SDS011;3400;48.506;11.692;2023-05-10T07:05:33;4.20;;;2.50;;
6725;SDS011;3400;48.506;11.692;2023-05-10T07:08:01;2.10;;;2.00;;
6725;SDS011;3400;48.506;11.692;2023-05-10T07:10:29;1.83;;;1.73;;
6725;SDS011;3400;48.506;11.692;2023-05-10T07:12:58;3.77;;;2.50;;
6725;SDS011;3400;48.506;11.692;2023-05-10T07:15:26;2.13;;;2.03;;
6725;SDS011;3400;48.506;11.692;2023-05-10T07:17:54;3.77;;;3.47;;
6725;SDS011;3400;48.506;11.692;2023-05-10T07:20:22;3.67;;;3.23;;
6725;SDS011;3400;48.506;11.692;2023-05-10T07:22:50;3.53;;;3.23;;
6725;SDS011;3400;48.506;11.692;2023-05-10T07:25:18;2.23;;;2.03;;
6725;SDS011;3400;48.506;11.692;2023-05-10T07:27:46;2.23;;;2.13;;
6725;SDS011;3400;48.506;11.692;2023-05-10T07:30:15;2.20;;;2.10;;
6725;SDS011;3400;48.506;11.692;2023-05-10T07:32:43;2.03;;;1.93;;
6725;SDS011;3400;48.506;11.692;2023-05-10T07:35:11;1.90;;;1.80;;
6725;SDS011;3400;48.506;11.692;2023-05-10T07:37:39;2.10;;;2.00;;
6725;SDS011;3400;48.506;11.692;2023-05-10T07:40:07;2.57;;;2.13;;
6725;SDS011;3400;48.506;11.692;2023-05-10T07:42:35;2.17;;;2.07;;
6725;SDS011;3400;48.506;11.692;2023-05-10T07:45:04;2.67;;;2.47;;
6725;SDS011;3400;48.506;11.692;2023-05-10T07:47:33;2.17;;;1.90;;
6725;SDS011;3400;48.506;11.692;2023-05-10T07:50:01;2.17;;;1.87;;
6725;SDS011;3400;48.506;11.692;2023-05-10T07:52:29;1.73;;;1.63;;
6725;SDS011;3400;48.506;11.692;2023-05-10T07:54:57;1.90;;;1.80;;
6725;SDS011;3400;48.506;11.692;2023-05-10T07:57:25;2.10;;;2.00;;
6725;SDS011;3400;48.506;11.692;2023-05-10T07:59:53;1.77;;;1.67;;
6725;SDS011;3400;48.506;11.692;2023-05-10T08:02:21;2.17;;;1.93;;
6725;SDS011;3400;48.506;11.692;2023-05-10T08:04:50;1.73;;;1.63;;
6725;SDS011;3400;48.506;11.692;2023-05-10T08:07:18;2.13;;;1.70;;
6725;SDS011;3400;48.506;11.692;2023-05-10T08:09:46;3.37;;;2.00;;
6725;SDS011;3400;48.506;11.692;2023-05-10T08:12:14;1.97;;;1.87;;
6725;SDS011;3400;48.506;11.692;2023-05-10T08:14:42;2.97;;;1.73;;
6725;SDS011;3400;48.506;11.692;2023-05-10T08:17:10;3.03;;;1.63;;
6725;SDS011;3400;48.506;11.692;2023-05-10T08:19:38;3.87;;;1.53;;
6725;SDS011;3400;48.506;11.692;2023-05-10T08:22:07;1.73;;;1.63;;
6725;SDS011;3400;48.506;11.692;2023-05-10T08:24:34;1.90;;;1.40;;
6725;SDS011;3400;48.506;11.692;2023-05-10T08:27:04;1.73;;;1.63;;
6725;SDS011;3400;48.506;11.692;2023-05-10T08:29:32;2.00;;;1.53;;
6725;SDS011;3400;48.506;11.692;2023-05-10T08:32:00;1.70;;;1.60;;
6725;SDS011;3400;48.506;11.692;2023-05-10T08:34:28;2.53;;;1.60;;
6725;SDS011;3400;48.506;11.692;2023-05-10T08:36:56;1.60;;;1.50;;
6725;SDS011;3400;48.506;11.692;2023-05-10T08:39:25;2.23;;;1.60;;
6725;SDS011;3400;48.506;11.692;2023-05-10T08:41:53;1.60;;;1.50;;
6725;SDS011;3400;48.506;11.692;2023-05-10T08:44:22;1.60;;;1.50;;
6725;SDS011;3400;48.506;11.692;2023-05-10T08:46:50;3.90;;;1.30;;
6725;SDS011;3400;48.506;11.692;2023-05-10T08:49:21;1.30;;;1.30;;
6725;SDS011;3400;48.506;11.692;2023-05-10T08:51:50;1.23;;;1.23;;
6725;SDS011;3400;48.506;11.692;2023-05-10T08:54:19;1.70;;;1.30;;
6725;SDS011;3400;48.506;11.692;2023-05-10T08:56:48;2.67;;;1.30;;
6725;SDS011;3400;48.506;11.692;2023-05-10T08:59:16;1.27;;;1.13;;
6725;SDS011;3400;48.506;11.692;2023-05-10T09:01:44;0.80;;;0.80;;
6725;SDS011;3400;48.506;11.692;2023-05-10T09:04:13;0.90;;;0.80;;
6725;SDS011;3400;48.506;11.692;2023-05-10T09:06:41;1.10;;;1.10;;
6725;SDS011;3400;48.506;11.692;2023-05-10T09:09:09;2.70;;;1.30;;
6725;SDS011;3400;48.506;11.692;2023-05-10T09:11:37;1.23;;;1.00;;
6725;SDS011;3400;48.506;11.692;2023-05-10T09:14:06;4.70;;;1.20;;
6725;SDS011;3400;48.506;11.692;2023-05-10T09:16:35;2.20;;;1.50;;
6725;SDS011;3400;48.506;11.692;2023-05-10T09:19:03;1.63;;;1.53;;
6725;SDS011;3400;48.506;11.692;2023-05-10T09:21:30;1.80;;;1.20;;
6725;SDS011;3400;48.506;11.692;2023-05-10T09:24:02;3.13;;;0.90;;
6725;SDS011;3400;48.506;11.692;2023-05-10T09:26:30;1.23;;;0.90;;
6725;SDS011;3400;48.506;11.692;2023-05-10T09:28:58;1.33;;;0.73;;
6725;SDS011;3400;48.506;11.692;2023-05-10T09:34:11;1.33;;;0.73;;
6725;SDS011;3400;48.506;11.692;2023-05-10T09:36:49;1.07;;;1.00;;
6725;SDS011;3400;48.506;11.692;2023-05-10T09:39:17;6.70;;;1.07;;
6725;SDS011;3400;48.506;11.692;2023-05-10T09:41:45;1.17;;;1.10;;
6725;SDS011;3400;48.506;11.692;2023-05-10T09:44:15;1.43;;;1.10;;
6725;SDS011;3400;48.506;11.692;2023-05-10T09:46:48;0.93;;;0.93;;
6725;SDS011;3400;48.506;11.692;2023-05-10T09:49:17;5.30;;;2.00;;
6725;SDS011;3400;48.506;11.692;2023-05-10T09:51:45;3.10;;;2.53;;
6725;SDS011;3400;48.506;11.692;2023-05-10T09:54:14;2.97;;;2.77;;
6725;SDS011;3400;48.506;11.692;2023-05-10T09:56:42;5.47;;;4.97;;
6725;SDS011;3400;48.506;11.692;2023-05-10T09:59:10;6.40;;;4.50;;
6725;SDS011;3400;48.506;11.692;2023-05-10T10:01:38;4.83;;;2.73;;
6725;SDS011;3400;48.506;11.692;2023-05-10T10:04:08;3.90;;;2.60;;
6725;SDS011;3400;48.506;11.692;2023-05-10T10:06:39;8.00;;;3.77;;
6725;SDS011;3400;48.506;11.692;2023-05-10T10:09:07;6.53;;;4.50;;
6725;SDS011;3400;48.506;11.692;2023-05-10T10:11:35;3.67;;;2.87;;
6725;SDS011;3400;48.506;11.692;2023-05-10T10:14:03;4.33;;;3.10;;
6725;SDS011;3400;48.506;11.692;2023-05-10T10:16:32;11.83;;;9.70;;
6725;SDS011;3400;48.506;11.692;2023-05-10T10:19:00;15.40;;;12.63;;
6725;SDS011;3400;48.506;11.692;2023-05-10T10:21:28;13.07;;;10.03;;
6725;SDS011;3400;48.506;11.692;2023-05-10T10:23:58;15.47;;;11.87;;
6725;SDS011;3400;48.506;11.692;2023-05-10T10:26:26;12.97;;;10.83;;
6725;SDS011;3400;48.506;11.692;2023-05-10T10:28:56;4.77;;;3.03;;
6725;SDS011;3400;48.506;11.692;2023-05-10T10:31:27;1.80;;;1.70;;
6725;SDS011;3400;48.506;11.692;2023-05-10T10:34:00;3.27;;;2.57;;
6725;SDS011;3400;48.506;11.692;2023-05-10T10:36:31;3.47;;;3.17;;
6725;SDS011;3400;48.506;11.692;2023-05-10T10:39:01;6.83;;;4.47;;
6725;SDS011;3400;48.506;11.692;2023-05-10T10:41:30;8.67;;;6.93;;
6725;SDS011;3400;48.506;11.692;2023-05-10T10:47:04;3.30;;;3.10;;
6725;SDS011;3400;48.506;11.692;2023-05-10T10:49:37;5.13;;;3.70;;
6725;SDS011;3400;48.506;11.692;2023-05-10T10:52:15;3.17;;;1.60;;
6725;SDS011;3400;48.506;11.692;2023-05-10T10:54:48;1.50;;;1.40;;
6725;SDS011;3400;48.506;11.692;2023-05-10T10:57:18;1.90;;;1.40;;
6725;SDS011;3400;48.506;11.692;2023-05-10T10:59:47;1.70;;;1.33;;
6725;SDS011;3400;48.506;11.692;2023-05-10T11:02:34;1.97;;;1.87;;
6725;SDS011;3400;48.506;11.692;2023-05-10T11:07:51;3.00;;;2.10;;
6725;SDS011;3400;48.506;11.692;2023-05-10T11:10:20;2.83;;;2.63;;
6725;SDS011;3400;48.506;11.692;2023-05-10T11:12:51;2.70;;;2.50;;
6725;SDS011;3400;48.506;11.692;2023-05-10T11:15:19;4.20;;;1.70;;
6725;SDS011;3400;48.506;11.692;2023-05-10T11:17:47;2.13;;;1.90;;
6725;SDS011;3400;48.506;11.692;2023-05-10T11:20:18;1.80;;;1.70;;
6725;SDS011;3400;48.506;11.692;2023-05-10T11:22:49;3.93;;;1.43;;
6725;SDS011;3400;48.506;11.692;2023-05-10T11:25:17;1.60;;;1.50;;
6725;SDS011;3400;48.506;11.692;2023-05-10T11:27:47;3.70;;;1.87;;
6725;SDS011;3400;48.506;11.692;2023-05-10T11:30:15;1.93;;;1.40;;
6725;SDS011;3400;48.506;11.692;2023-05-10T11:32:43;6.97;;;1.37;;
6725;SDS011;3400;48.506;11.692;2023-05-10T11:35:12;3.30;;;1.40;;
6725;SDS011;3400;48.506;11.692;2023-05-10T11:37:40;1.57;;;1.40;;
6725;SDS011;3400;48.506;11.692;2023-05-10T11:40:09;2.77;;;1.30;;
6725;SDS011;3400;48.506;11.692;2023-05-10T11:42:38;3.23;;;1.63;;
6725;SDS011;3400;48.506;11.692;2023-05-10T11:45:07;1.90;;;1.80;;
6725;SDS011;3400;48.506;11.692;2023-05-10T11:47:36;1.80;;;1.70;;
6725;SDS011;3400;48.506;11.692;2023-05-10T11:50:05;2.60;;;1.80;;
6725;SDS011;3400;48.506;11.692;2023-05-10T11:52:35;3.23;;;1.90;;
6725;SDS011;3400;48.506;11.692;2023-05-10T11:55:04;2.60;;;1.90;;
6725;SDS011;3400;48.506;11.692;2023-05-10T11:57:32;3.63;;;2.40;;
6725;SDS011;3400;48.506;11.692;2023-05-10T12:00:00;1.80;;;1.70;;
6725;SDS011;3400;48.506;11.692;2023-05-10T12:02:35;3.13;;;2.07;;
6725;SDS011;3400;48.506;11.692;2023-05-10T12:05:03;3.13;;;2.07;;
6725;SDS011;3400;48.506;11.692;2023-05-10T12:07:32;2.03;;;1.83;;
6725;SDS011;3400;48.506;11.692;2023-05-10T12:10:03;1.77;;;1.63;;
6725;SDS011;3400;48.506;11.692;2023-05-10T12:12:38;2.17;;;1.97;;
6725;SDS011;3400;48.506;11.692;2023-05-10T12:15:10;2.53;;;2.33;;
6725;SDS011;3400;48.506;11.692;2023-05-10T12:17:39;2.60;;;2.30;;
6725;SDS011;3400;48.506;11.692;2023-05-10T12:20:14;3.83;;;2.00;;
6725;SDS011;3400;48.506;11.692;2023-05-10T12:22:43;2.23;;;2.03;;
6725;SDS011;3400;48.506;11.692;2023-05-10T12:25:11;2.37;;;1.77;;
6725;SDS011;3400;48.506;11.692;2023-05-10T12:27:39;3.87;;;1.60;;
6725;SDS011;3400;48.506;11.692;2023-05-10T12:30:07;1.90;;;1.80;;
6725;SDS011;3400;48.506;11.692;2023-05-10T12:32:41;1.67;;;1.57;;
6725;SDS011;3400;48.506;11.692;2023-05-10T12:35:09;4.70;;;2.17;;
6725;SDS011;3400;48.506;11.692;2023-05-10T12:37:37;5.77;;;2.70;;
6725;SDS011;3400;48.506;11.692;2023-05-10T12:40:06;6.43;;;2.33;;
6725;SDS011;3400;48.506;11.692;2023-05-10T12:42:34;4.13;;;1.80;;
6725;SDS011;3400;48.506;11.692;2023-05-10T12:45:03;4.43;;;1.67;;
6725;SDS011;3400;48.506;11.692;2023-05-10T12:47:31;4.40;;;1.60;;
6725;SDS011;3400;48.506;11.692;2023-05-10T12:50:01;2.40;;;1.47;;
6725;SDS011;3400;48.506;11.692;2023-05-10T12:52:30;6.47;;;1.30;;
6725;SDS011;3400;48.506;11.692;2023-05-10T12:54:58;2.97;;;0.93;;
6725;SDS011;3400;48.506;11.692;2023-05-10T12:57:26;3.90;;;1.33;;
6725;SDS011;3400;48.506;11.692;2023-05-10T12:59:55;1.23;;;1.13;;
6725;SDS011;3400;48.506;11.692;2023-05-10T13:02:22;1.10;;;0.80;;
6725;SDS011;3400;48.506;11.692;2023-05-10T13:04:50;1.97;;;1.13;;
6725;SDS011;3400;48.506;11.692;2023-05-10T13:07:19;0.93;;;0.93;;
6725;SDS011;3400;48.506;11.692;2023-05-10T13:09:47;0.97;;;0.87;;
6725;SDS011;3400;48.506;11.692;2023-05-10T13:12:15;0.80;;;0.80;;
6725;SDS011;3400;48.506;11.692;2023-05-10T13:14:44;1.43;;;1.33;;
6725;SDS011;3400;48.506;11.692;2023-05-10T13:17:12;1.13;;;0.90;;
6725;SDS011;3400;48.506;11.692;2023-05-10T13:19:40;1.40;;;1.20;;
6725;SDS011;3400;48.506;11.692;2023-05-10T13:22:07;1.80;;;0.83;;
6725;SDS011;3400;48.506;11.692;2023-05-10T13:24:37;1.00;;;1.00;;
6725;SDS011;3400;48.506;11.692;2023-05-10T13:27:05;1.30;;;1.20;;
6725;SDS011;3400;48.506;11.692;2023-05-10T13:29:33;1.70;;;1.13;;
6725;SDS011;3400;48.506;11.692;2023-05-10T13:32:00;3.23;;;1.70;;
6725;SDS011;3400;48.506;11.692;2023-05-10T13:34:28;2.87;;;1.70;;
6725;SDS011;3400;48.506;11.692;2023-05-10T13:36:56;1.43;;;1.30;;
6725;SDS011;3400;48.506;11.692;2023-05-10T13:39:24;1.83;;;1.63;;
6725;SDS011;3400;48.506;11.692;2023-05-10T13:41:53;2.17;;;1.50;;
6725;SDS011;3400;48.506;11.692;2023-05-10T13:44:22;1.17;;;1.17;;
6725;SDS011;3400;48.506;11.692;2023-05-10T13:46:49;3.73;;;1.20;;
6725;SDS011;3400;48.506;11.692;2023-05-10T13:49:17;1.60;;;1.23;;
6725;SDS011;3400;48.506;11.692;2023-05-10T13:51:45;1.57;;;1.20;;
6725;SDS011;3400;48.506;11.692;2023-05-10T13:54:13;1.20;;;1.20;;
6725;SDS011;3400;48.506;11.692;2023-05-10T13:56:43;2.10;;;1.53;;
6725;SDS011;3400;48.506;11.692;2023-05-10T13:59:12;1.50;;;1.40;;
6725;SDS011;3400;48.506;11.692;2023-05-10T14:01:41;1.80;;;1.70;;
6725;SDS011;3400;48.506;11.692;2023-05-10T14:04:09;1.70;;;1.60;;
6725;SDS011;3400;48.506;11.692;2023-05-10T14:06:37;2.00;;;1.70;;
6725;SDS011;3400;48.506;11.692;2023-05-10T14:09:05;4.97;;;2.20;;
6725;SDS011;3400;48.506;11.692;2023-05-10T14:11:33;2.67;;;2.17;;
6725;SDS011;3400;48.506;11.692;2023-05-10T14:14:02;5.33;;;2.10;;
6725;SDS011;3400;48.506;11.692;2023-05-10T14:16:32;2.13;;;2.03;;
6725;SDS011;3400;48.506;11.692;2023-05-10T14:19:05;2.30;;;2.10;;
6725;SDS011;3400;48.506;11.692;2023-05-10T14:21:42;2.20;;;1.50;;
6725;SDS011;3400;48.506;11.692;2023-05-10T14:24:15;3.97;;;1.33;;
6725;SDS011;3400;48.506;11.692;2023-05-10T14:26:43;1.27;;;1.10;;
6725;SDS011;3400;48.506;11.692;2023-05-10T14:29:11;1.30;;;1.27;;
6725;SDS011;3400;48.506;11.692;2023-05-10T14:31:41;3.37;;;0.93;;
6725;SDS011;3400;48.506;11.692;2023-05-10T14:34:08;1.40;;;1.30;;
6725;SDS011;3400;48.506;11.692;2023-05-10T14:36:36;1.07;;;1.07;;
6725;SDS011;3400;48.506;11.692;2023-05-10T14:39:04;1.27;;;1.10;;
6725;SDS011;3400;48.506;11.692;2023-05-10T14:41:32;1.90;;;1.30;;
6725;SDS011;3400;48.506;11.692;2023-05-10T14:44:00;1.70;;;1.53;;
6725;SDS011;3400;48.506;11.692;2023-05-10T14:46:29;1.63;;;1.40;;
6725;SDS011;3400;48.506;11.692;2023-05-10T14:48:58;3.90;;;1.53;;
6725;SDS011;3400;48.506;11.692;2023-05-10T14:51:26;4.00;;;1.70;;
6725;SDS011;3400;48.506;11.692;2023-05-10T14:53:54;1.63;;;1.53;;
6725;SDS011;3400;48.506;11.692;2023-05-10T14:56:22;3.60;;;1.90;;
6725;SDS011;3400;48.506;11.692;2023-05-10T14:58:51;2.60;;;1.63;;
6725;SDS011;3400;48.506;11.692;2023-05-10T15:01:19;2.40;;;2.17;;
6725;SDS011;3400;48.506;11.692;2023-05-10T15:03:47;2.13;;;1.93;;
6725;SDS011;3400;48.506;11.692;2023-05-10T15:06:16;2.73;;;2.20;;
6725;SDS011;3400;48.506;11.692;2023-05-10T15:08:44;2.20;;;2.10;;
6725;SDS011;3400;48.506;11.692;2023-05-10T15:11:12;2.17;;;2.07;;
6725;SDS011;3400;48.506;11.692;2023-05-10T15:13:39;3.07;;;2.07;;
6725;SDS011;3400;48.506;11.692;2023-05-10T15:16:07;2.43;;;2.20;;
6725;SDS011;3400;48.506;11.692;2023-05-10T15:18:36;2.87;;;1.70;;
6725;SDS011;3400;48.506;11.692;2023-05-10T15:21:04;1.87;;;1.50;;
6725;SDS011;3400;48.506;11.692;2023-05-10T15:23:33;4.00;;;1.80;;